Time;durP1;ratioP1;P1;durP2;ratioP2;P2;SDS_P1;SDS_P2;PMS_P1;PMS_P2;Temp;Humidity;BMP_temperature;BMP_pressure;BME280_temperature;BME280_humidity;BME280_pressure;Samples;Min_cycle;Max_cycle;Signal;HPM_P1;HPM_P2
2021/12/11 00:00:37;;;;;;;37.93;24.87;;;;;;;;;;2060240;28;20420;-59
2021/12/11 00:01:45;;;;;;;40.13;25.07;;;;;;;;;;2061371;28;20403;-59
2021/12/11 00:02:54;;;;;;;41.63;26.63;;;;;;;;;;2061131;28;20420;-60
2021/12/11 00:03:56;;;;;;;44.00;26.60;;;;;;;;;;2061713;28;20448;-59
2021/12/11 00:04:57;;;;;;;42.80;28.27;;;;;;;;;;2060693;28;20443;-60
2021/12/11 00:06:16;;;;;;;39.97;26.90;;;;;;;;;;2060879;28;20434;-62
2021/12/11 00:07:20;;;;;;;39.47;27.17;;;;;;;;;;2055836;28;20435;-61
2021/12/11 00:08:23;;;;;;;41.33;29.00;;;;;;;;;;2061908;28;20432;-59
2021/12/11 00:09:30;;;;;;;40.17;26.53;;;;;;;;;;2062071;28;20407;-59
2021/12/11 00:10:33;;;;;;;43.77;27.93;;;;;;;;;;2058982;28;20487;-62
2021/12/11 00:11:35;;;;;;;39.83;27.47;;;;;;;;;;2060932;28;20885;-57
2021/12/11 00:12:40;;;;;;;44.07;28.53;;;;;;;;;;2053037;28;20914;-62
2021/12/11 00:13:41;;;;;;;38.40;25.67;;;;;;;;;;2058159;28;20467;-60
2021/12/11 00:14:42;;;;;;;39.37;27.20;;;;;;;;;;2057212;28;20408;-60
2021/12/11 00:15:45;;;;;;;40.80;25.33;;;;;;;;;;2057267;28;20562;-60
2021/12/11 00:16:45;;;;;;;42.20;26.50;;;;;;;;;;2057263;28;20435;-58
2021/12/11 00:17:46;;;;;;;34.27;22.90;;;;;;;;;;2057945;28;20404;-57
2021/12/11 00:18:51;;;;;;;36.60;25.30;;;;;;;;;;2057364;28;20186;-63
2021/12/11 00:19:51;;;;;;;40.83;26.50;;;;;;;;;;2056877;28;20189;-57
2021/12/11 00:20:54;;;;;;;36.67;24.70;;;;;;;;;;2050988;28;20930;-59
2021/12/11 00:22:01;;;;;;;35.40;24.03;;;;;;;;;;2052927;28;20185;-59
2021/12/11 00:23:01;;;;;;;34.17;24.00;;;;;;;;;;2056462;28;21006;-59
2021/12/11 00:24:04;;;;;;;35.73;24.07;;;;;;;;;;2056191;28;20440;-58
2021/12/11 00:25:06;;;;;;;37.13;26.87;;;;;;;;;;2057231;28;20285;-58
2021/12/11 00:26:07;;;;;;;37.60;26.97;;;;;;;;;;2055643;28;20416;-59
2021/12/11 00:27:13;;;;;;;37.80;25.93;;;;;;;;;;2056845;28;20436;-60
2021/12/11 00:28:14;;;;;;;35.40;25.77;;;;;;;;;;2049942;28;20417;-61
2021/12/11 00:29:14;;;;;;;37.57;25.33;;;;;;;;;;2056939;28;20432;-59
2021/12/11 00:30:30;;;;;;;44.40;27.23;;;;;;;;;;2053979;28;20187;-60
2021/12/11 00:31:32;;;;;;;38.83;26.57;;;;;;;;;;2051786;28;20166;-58
2021/12/11 00:32:33;;;;;;;43.80;27.93;;;;;;;;;;2053716;28;20419;-55
2021/12/11 00:33:34;;;;;;;39.57;28.23;;;;;;;;;;2057211;28;20467;-57
2021/12/11 00:34:35;;;;;;;40.83;27.90;;;;;;;;;;2057368;28;20198;-57
2021/12/11 00:35:39;;;;;;;43.30;28.20;;;;;;;;;;2057455;28;20190;-59
2021/12/11 00:36:40;;;;;;;41.20;26.83;;;;;;;;;;2056915;28;20430;-57
2021/12/11 00:37:40;;;;;;;36.60;26.67;;;;;;;;;;2050605;29;20409;-55
2021/12/11 00:38:41;;;;;;;37.67;25.90;;;;;;;;;;2055554;28;20228;-58
2021/12/11 00:39:50;;;;;;;40.73;27.13;;;;;;;;;;2059453;28;20257;-57
2021/12/11 00:40:52;;;;;;;38.83;26.20;;;;;;;;;;2056435;28;20182;-55
2021/12/11 00:41:55;;;;;;;38.43;26.33;;;;;;;;;;2058566;28;20824;-54
2021/12/11 00:42:58;;;;;;;39.73;25.60;;;;;;;;;;2058302;28;20410;-58
2021/12/11 00:44:01;;;;;;;37.37;26.03;;;;;;;;;;2057868;28;20467;-60
2021/12/11 00:45:10;;;;;;;42.97;26.50;;;;;;;;;;2058099;28;20416;-62
2021/12/11 00:46:12;;;;;;;36.00;25.97;;;;;;;;;;2057716;28;20428;-61
2021/12/11 00:47:19;;;;;;;41.63;27.17;;;;;;;;;;2058857;28;21100;-62
2021/12/11 00:48:20;;;;;;;36.07;25.23;;;;;;;;;;2053811;28;20527;-60
2021/12/11 00:49:21;;;;;;;34.53;24.43;;;;;;;;;;2058098;28;20412;-60
2021/12/11 00:50:25;;;;;;;39.33;26.13;;;;;;;;;;2053804;28;20900;-58
2021/12/11 00:51:25;;;;;;;41.00;25.27;;;;;;;;;;2058741;28;20170;-56
2021/12/11 00:52:36;;;;;;;35.50;25.83;;;;;;;;;;2059092;28;20538;-55
2021/12/11 00:53:36;;;;;;;42.33;26.20;;;;;;;;;;2056734;28;20292;-56
2021/12/11 00:54:41;;;;;;;39.07;27.47;;;;;;;;;;2060434;28;20416;-56
2021/12/11 00:55:53;;;;;;;36.30;25.43;;;;;;;;;;2062653;28;20218;-54
2021/12/11 00:56:53;;;;;;;40.17;25.30;;;;;;;;;;2056146;28;20948;-58
2021/12/11 00:58:10;;;;;;;35.87;26.10;;;;;;;;;;2057740;28;20443;-56
2021/12/11 00:59:12;;;;;;;33.90;24.87;;;;;;;;;;2051676;28;20174;-55
2021/12/11 01:00:16;;;;;;;37.63;25.17;;;;;;;;;;2050168;28;20179;-59
2021/12/11 01:01:18;;;;;;;36.30;24.43;;;;;;;;;;2050746;28;20479;-60
2021/12/11 01:02:18;;;;;;;30.00;22.77;;;;;;;;;;2057503;28;20412;-57
2021/12/11 01:03:21;;;;;;;30.47;22.60;;;;;;;;;;2057268;28;20456;-59
2021/12/11 01:04:26;;;;;;;36.20;25.50;;;;;;;;;;2056651;28;20202;-57
2021/12/11 01:05:32;;;;;;;30.50;24.07;;;;;;;;;;2052353;28;20182;-60
2021/12/11 01:06:37;;;;;;;32.43;23.37;;;;;;;;;;2054610;28;20451;-61
2021/12/11 01:07:38;;;;;;;32.67;23.17;;;;;;;;;;2053084;28;20425;-55
2021/12/11 01:08:40;;;;;;;31.00;22.83;;;;;;;;;;2053441;28;20799;-56
2021/12/11 01:09:47;;;;;;;32.00;23.13;;;;;;;;;;2055976;28;20186;-55
2021/12/11 01:10:48;;;;;;;31.57;22.30;;;;;;;;;;2051661;28;20536;-54
2021/12/11 01:11:52;;;;;;;27.90;21.10;;;;;;;;;;2053332;28;20796;-58
2021/12/11 01:12:58;;;;;;;29.03;22.90;;;;;;;;;;2056251;28;20427;-54
2021/12/11 01:14:06;;;;;;;31.50;22.77;;;;;;;;;;2054845;28;20526;-55
2021/12/11 01:15:19;;;;;;;36.03;22.33;;;;;;;;;;2056552;28;20400;-55
2021/12/11 01:16:21;;;;;;;32.30;23.03;;;;;;;;;;2058168;28;20425;-59
2021/12/11 01:17:39;;;;;;;33.67;24.43;;;;;;;;;;2063639;28;20418;-60
2021/12/11 01:18:42;;;;;;;35.90;24.83;;;;;;;;;;2054648;28;20242;-61
2021/12/11 01:19:45;;;;;;;33.83;25.57;;;;;;;;;;2049367;28;20528;-59
2021/12/11 01:20:54;;;;;;;34.03;25.47;;;;;;;;;;2048042;29;20971;-58
2021/12/11 01:21:59;;;;;;;32.33;23.73;;;;;;;;;;2054118;28;20482;-61
2021/12/11 01:23:00;;;;;;;35.77;25.60;;;;;;;;;;2039970;29;20402;-55
2021/12/11 01:25:13;;;;;;;31.53;23.80;;;;;;;;;;2055895;28;20412;-61
2021/12/11 01:26:15;;;;;;;31.60;24.23;;;;;;;;;;2049579;28;20179;-54
2021/12/11 01:27:17;;;;;;;30.70;23.47;;;;;;;;;;2055196;28;20443;-58
2021/12/11 01:28:19;;;;;;;34.93;25.13;;;;;;;;;;2056256;28;20850;-55
2021/12/11 01:29:20;;;;;;;33.27;24.30;;;;;;;;;;2053274;28;20431;-56
2021/12/11 01:30:23;;;;;;;35.10;24.43;;;;;;;;;;2056312;28;20482;-54
2021/12/11 01:31:23;;;;;;;36.80;25.50;;;;;;;;;;2052293;28;20468;-57
2021/12/11 01:32:26;;;;;;;30.43;23.73;;;;;;;;;;2056269;28;20166;-56
2021/12/11 01:33:26;;;;;;;34.10;24.67;;;;;;;;;;2051927;28;20289;-53
2021/12/11 01:34:27;;;;;;;32.07;24.37;;;;;;;;;;2056106;28;20186;-58
2021/12/11 01:35:28;;;;;;;41.40;30.40;;;;;;;;;;2051477;28;20183;-56
2021/12/11 01:36:28;;;;;;;38.13;28.87;;;;;;;;;;2056594;28;21088;-58
2021/12/11 01:37:29;;;;;;;33.57;24.00;;;;;;;;;;2055527;28;20213;-56
2021/12/11 01:38:29;;;;;;;32.90;26.13;;;;;;;;;;2055619;28;20179;-58
2021/12/11 01:39:32;;;;;;;32.33;24.97;;;;;;;;;;2051752;28;20182;-54
2021/12/11 01:40:33;;;;;;;26.97;21.10;;;;;;;;;;2056408;28;20554;-54
2021/12/11 01:41:34;;;;;;;28.97;21.73;;;;;;;;;;2055615;28;20650;-58
2021/12/11 01:42:35;;;;;;;26.20;20.90;;;;;;;;;;2056065;28;20254;-55
2021/12/11 01:43:36;;;;;;;25.20;18.80;;;;;;;;;;2056231;28;20177;-57
2021/12/11 01:44:38;;;;;;;26.37;19.87;;;;;;;;;;2055715;28;20179;-54
2021/12/11 01:45:41;;;;;;;23.03;18.90;;;;;;;;;;2056894;28;20181;-52
2021/12/11 01:46:42;;;;;;;25.63;19.70;;;;;;;;;;2055083;28;20445;-56
2021/12/11 01:47:44;;;;;;;21.97;18.57;;;;;;;;;;2056258;28;20274;-57
2021/12/11 01:48:47;;;;;;;21.43;17.67;;;;;;;;;;2051739;28;20194;-55
2021/12/11 01:49:50;;;;;;;20.57;18.07;;;;;;;;;;2053716;28;20190;-56
2021/12/11 01:51:03;;;;;;;22.40;17.20;;;;;;;;;;2056184;28;20778;-57
2021/12/11 01:52:09;;;;;;;21.07;18.33;;;;;;;;;;2056331;28;20856;-59
2021/12/11 01:53:12;;;;;;;25.63;18.43;;;;;;;;;;2053798;28;20718;-58
2021/12/11 01:54:18;;;;;;;24.53;17.90;;;;;;;;;;2056323;28;20205;-55
2021/12/11 01:55:21;;;;;;;19.37;16.97;;;;;;;;;;2056640;28;20579;-54
2021/12/11 01:56:23;;;;;;;25.67;18.17;;;;;;;;;;2056369;28;20728;-56
2021/12/11 01:57:25;;;;;;;23.20;17.73;;;;;;;;;;2050370;28;20429;-57
2021/12/11 01:58:37;;;;;;;22.43;18.60;;;;;;;;;;2052318;28;20177;-54
2021/12/11 01:59:39;;;;;;;20.87;17.90;;;;;;;;;;2057413;28;20175;-55
2021/12/11 02:00:45;;;;;;;23.13;18.00;;;;;;;;;;2057687;28;20642;-54
2021/12/11 02:01:55;;;;;;;23.60;18.23;;;;;;;;;;2058163;28;20640;-60
2021/12/11 02:02:56;;;;;;;25.97;17.97;;;;;;;;;;2057258;28;20643;-59
2021/12/11 02:03:57;;;;;;;22.37;18.43;;;;;;;;;;2056970;28;20194;-57
2021/12/11 02:04:57;;;;;;;19.23;17.23;;;;;;;;;;2056897;28;20182;-54
2021/12/11 02:05:58;;;;;;;24.03;18.43;;;;;;;;;;2056979;28;20932;-55
2021/12/11 02:07:04;;;;;;;24.10;19.13;;;;;;;;;;2056448;28;20174;-57
2021/12/11 02:08:09;;;;;;;22.40;17.73;;;;;;;;;;2056548;28;20182;-58
2021/12/11 02:09:19;;;;;;;23.20;17.67;;;;;;;;;;2058475;28;20384;-56
2021/12/11 02:10:25;;;;;;;22.63;18.80;;;;;;;;;;2053625;28;20210;-54
2021/12/11 02:11:27;;;;;;;23.53;19.03;;;;;;;;;;2057559;28;20167;-57
2021/12/11 02:12:37;;;;;;;24.27;19.10;;;;;;;;;;2048510;28;20175;-57
2021/12/11 02:13:46;;;;;;;19.47;17.37;;;;;;;;;;2049004;28;20437;-58
2021/12/11 02:14:50;;;;;;;23.90;18.13;;;;;;;;;;2057862;28;20178;-60
2021/12/11 02:15:53;;;;;;;23.23;19.30;;;;;;;;;;2058396;28;20174;-59
2021/12/11 02:16:54;;;;;;;23.10;18.40;;;;;;;;;;2058569;28;20444;-59
2021/12/11 02:18:01;;;;;;;21.57;18.80;;;;;;;;;;2058071;28;20192;-60
2021/12/11 02:19:07;;;;;;;23.83;18.70;;;;;;;;;;2057878;28;20627;-59
2021/12/11 02:20:09;;;;;;;21.87;17.63;;;;;;;;;;2057113;28;20189;-60
2021/12/11 02:21:12;;;;;;;23.03;17.57;;;;;;;;;;2050271;28;20183;-59
2021/12/11 02:22:14;;;;;;;22.20;17.83;;;;;;;;;;2052092;28;20291;-57
2021/12/11 02:23:15;;;;;;;24.33;18.77;;;;;;;;;;2049975;28;20183;-56
2021/12/11 02:24:19;;;;;;;22.80;18.33;;;;;;;;;;2056021;28;20201;-61
2021/12/11 02:25:23;;;;;;;22.67;18.60;;;;;;;;;;2057291;28;20197;-60
2021/12/11 02:26:25;;;;;;;22.97;18.30;;;;;;;;;;2051396;28;20786;-61
2021/12/11 02:27:29;;;;;;;20.97;17.70;;;;;;;;;;2055805;28;20175;-59
2021/12/11 02:28:32;;;;;;;19.70;16.93;;;;;;;;;;2055456;28;20408;-61
2021/12/11 02:29:35;;;;;;;21.93;17.43;;;;;;;;;;2054023;28;20674;-60
2021/12/11 02:30:38;;;;;;;21.20;18.17;;;;;;;;;;2057545;28;20305;-61
2021/12/11 02:31:47;;;;;;;19.57;16.77;;;;;;;;;;2056003;28;20179;-57
2021/12/11 02:33:00;;;;;;;19.97;17.40;;;;;;;;;;2056430;28;20175;-60
2021/12/11 02:34:09;;;;;;;22.47;18.43;;;;;;;;;;2056456;28;20556;-59
2021/12/11 02:35:11;;;;;;;22.00;17.80;;;;;;;;;;2057053;28;20413;-55
2021/12/11 02:36:38;;;;;;;20.13;16.87;;;;;;;;;;2053933;28;20486;-59
2021/12/11 02:37:45;;;;;;;22.83;16.40;;;;;;;;;;2026127;29;21057;-61
2021/12/11 02:38:52;;;;;;;24.63;17.80;;;;;;;;;;2046207;28;20198;-59
2021/12/11 02:39:54;;;;;;;22.67;17.93;;;;;;;;;;2055512;28;20240;-61
2021/12/11 02:40:58;;;;;;;21.60;17.13;;;;;;;;;;2055137;28;20236;-55
2021/12/11 02:41:58;;;;;;;19.37;16.87;;;;;;;;;;2056691;28;20556;-59
2021/12/11 02:43:04;;;;;;;23.10;17.83;;;;;;;;;;2056658;28;20529;-61
2021/12/11 02:44:16;;;;;;;22.13;18.03;;;;;;;;;;2056808;28;20210;-59
2021/12/11 02:45:36;;;;;;;21.53;18.13;;;;;;;;;;2051231;28;20186;-58
2021/12/11 02:46:49;;;;;;;25.33;18.57;;;;;;;;;;2057114;28;20174;-59
2021/12/11 02:47:53;;;;;;;23.90;19.77;;;;;;;;;;2054946;28;20443;-61
2021/12/11 02:48:59;;;;;;;24.47;18.57;;;;;;;;;;2056593;28;20435;-59
2021/12/11 02:50:08;;;;;;;20.87;18.17;;;;;;;;;;2055505;28;20416;-61
2021/12/11 02:51:30;;;;;;;21.00;18.80;;;;;;;;;;2050938;28;20588;-60
2021/12/11 02:52:36;;;;;;;23.03;18.83;;;;;;;;;;2056882;28;20964;-59
2021/12/11 02:53:40;;;;;;;21.53;18.70;;;;;;;;;;2053404;28;20202;-54
2021/12/11 02:54:43;;;;;;;22.77;18.63;;;;;;;;;;2057406;28;20208;-58
2021/12/11 02:55:45;;;;;;;21.83;18.43;;;;;;;;;;2053993;28;20229;-60
2021/12/11 02:56:50;;;;;;;21.53;18.37;;;;;;;;;;2056920;28;20232;-60
2021/12/11 02:57:53;;;;;;;25.03;19.83;;;;;;;;;;2057856;28;20189;-60
2021/12/11 02:58:56;;;;;;;20.57;18.27;;;;;;;;;;2055225;28;20895;-60
2021/12/11 03:00:04;;;;;;;23.30;18.37;;;;;;;;;;2055307;28;20431;-56
2021/12/11 03:01:11;;;;;;;28.10;18.77;;;;;;;;;;2053412;28;20416;-60
2021/12/11 03:02:17;;;;;;;24.17;19.60;;;;;;;;;;2056762;28;20187;-56
2021/12/11 03:03:22;;;;;;;23.67;20.00;;;;;;;;;;2057453;28;20178;-60
2021/12/11 03:04:30;;;;;;;21.80;18.90;;;;;;;;;;2053240;28;20932;-59
2021/12/11 03:05:40;;;;;;;23.67;19.07;;;;;;;;;;2057057;28;20424;-59
2021/12/11 03:06:44;;;;;;;24.83;18.93;;;;;;;;;;2054559;28;20393;-56
2021/12/11 03:07:50;;;;;;;21.10;18.90;;;;;;;;;;2055597;28;20431;-58
2021/12/11 03:08:52;;;;;;;27.10;18.80;;;;;;;;;;2055346;28;20186;-56
2021/12/11 03:09:54;;;;;;;25.90;19.43;;;;;;;;;;2056864;28;20189;-58
2021/12/11 03:10:56;;;;;;;21.53;18.80;;;;;;;;;;2053756;28;20270;-55
2021/12/11 03:11:58;;;;;;;25.37;19.07;;;;;;;;;;2057677;28;20178;-59
2021/12/11 03:12:58;;;;;;;23.23;18.87;;;;;;;;;;2056819;28;20190;-57
2021/12/11 03:13:58;;;;;;;24.27;20.03;;;;;;;;;;2056139;28;20208;-58
2021/12/11 03:14:59;;;;;;;21.63;19.20;;;;;;;;;;2056835;28;20197;-59
2021/12/11 03:15:59;;;;;;;24.37;18.73;;;;;;;;;;2057442;28;20182;-62
2021/12/11 03:17:00;;;;;;;23.77;18.77;;;;;;;;;;2057302;28;20551;-59
2021/12/11 03:18:01;;;;;;;23.50;20.47;;;;;;;;;;2056630;28;20170;-55
2021/12/11 03:19:04;;;;;;;25.63;20.27;;;;;;;;;;2057028;28;20249;-58
2021/12/11 03:20:05;;;;;;;21.80;18.07;;;;;;;;;;2056532;28;20559;-55
2021/12/11 03:21:06;;;;;;;21.87;18.17;;;;;;;;;;2057692;28;20419;-58
2021/12/11 03:22:08;;;;;;;23.40;20.47;;;;;;;;;;2056790;28;20158;-59
2021/12/11 03:23:08;;;;;;;26.53;19.80;;;;;;;;;;2049689;28;20678;-61
2021/12/11 03:24:09;;;;;;;26.13;20.30;;;;;;;;;;2056955;28;20444;-61
2021/12/11 03:25:13;;;;;;;21.60;18.93;;;;;;;;;;2055907;28;20277;-59
2021/12/11 03:26:13;;;;;;;22.10;19.13;;;;;;;;;;2057083;28;20229;-59
2021/12/11 03:27:14;;;;;;;22.93;19.30;;;;;;;;;;2056816;28;20471;-59
2021/12/11 03:28:16;;;;;;;24.07;19.83;;;;;;;;;;2054871;28;20587;-61
2021/12/11 03:29:16;;;;;;;21.83;19.33;;;;;;;;;;2055997;28;20206;-61
2021/12/11 03:30:21;;;;;;;25.57;19.93;;;;;;;;;;2054604;28;20179;-59
2021/12/11 03:31:22;;;;;;;25.67;19.90;;;;;;;;;;2056621;28;20197;-60
2021/12/11 03:32:22;;;;;;;24.07;19.97;;;;;;;;;;2056681;28;20195;-60
2021/12/11 03:33:26;;;;;;;22.97;19.27;;;;;;;;;;2055824;28;20202;-57
2021/12/11 03:34:27;;;;;;;21.43;18.90;;;;;;;;;;2056368;28;20806;-61
2021/12/11 03:35:28;;;;;;;23.23;19.17;;;;;;;;;;2056986;28;20416;-61
2021/12/11 03:36:32;;;;;;;23.77;20.90;;;;;;;;;;2054069;28;21795;-61
2021/12/11 03:37:32;;;;;;;22.67;19.57;;;;;;;;;;2056879;28;20221;-59
2021/12/11 03:38:33;;;;;;;26.90;21.20;;;;;;;;;;2056807;28;20420;-61
2021/12/11 03:39:35;;;;;;;22.87;19.63;;;;;;;;;;2053011;28;20175;-60
2021/12/11 03:40:36;;;;;;;29.10;21.57;;;;;;;;;;2056377;28;20190;-59
2021/12/11 03:41:37;;;;;;;28.37;21.87;;;;;;;;;;2056108;28;20408;-61
2021/12/11 03:42:39;;;;;;;24.10;21.30;;;;;;;;;;2055806;28;20599;-60
2021/12/11 03:43:40;;;;;;;24.80;20.57;;;;;;;;;;2056548;28;20237;-59
2021/12/11 03:44:41;;;;;;;26.27;21.90;;;;;;;;;;2055825;28;20455;-61
2021/12/11 03:45:44;;;;;;;28.93;21.90;;;;;;;;;;2053407;28;20189;-57
2021/12/11 03:46:46;;;;;;;25.67;22.30;;;;;;;;;;2054515;28;20420;-56
2021/12/11 03:47:49;;;;;;;28.33;21.23;;;;;;;;;;2056559;28;20446;-54
2021/12/11 03:48:53;;;;;;;23.73;20.80;;;;;;;;;;2053829;28;20456;-57
2021/12/11 03:49:54;;;;;;;27.80;21.40;;;;;;;;;;2054418;28;20536;-59
2021/12/11 03:50:55;;;;;;;28.63;21.30;;;;;;;;;;2056849;28;20511;-59
2021/12/11 03:51:55;;;;;;;26.70;21.53;;;;;;;;;;2056676;28;20177;-60
2021/12/11 03:52:56;;;;;;;29.77;22.40;;;;;;;;;;2056540;28;20444;-59
2021/12/11 03:53:58;;;;;;;33.97;24.17;;;;;;;;;;2055845;28;20202;-59
2021/12/11 03:54:58;;;;;;;29.27;23.07;;;;;;;;;;2057224;28;20174;-59
2021/12/11 03:56:00;;;;;;;30.07;24.03;;;;;;;;;;2056595;28;20504;-59
2021/12/11 03:57:01;;;;;;;28.17;23.27;;;;;;;;;;2057508;28;20221;-60
2021/12/11 03:58:03;;;;;;;30.73;23.17;;;;;;;;;;2056282;28;20931;-60
2021/12/11 03:59:09;;;;;;;30.17;23.97;;;;;;;;;;2056314;28;20427;-59
2021/12/11 04:00:11;;;;;;;30.03;23.60;;;;;;;;;;2054384;28;20431;-62
2021/12/11 04:01:18;;;;;;;31.67;23.17;;;;;;;;;;2057112;28;20392;-60
2021/12/11 04:02:21;;;;;;;30.70;23.73;;;;;;;;;;2057082;28;20396;-60
2021/12/11 04:03:22;;;;;;;30.93;23.90;;;;;;;;;;2056265;28;20420;-61
2021/12/11 04:04:25;;;;;;;32.83;23.50;;;;;;;;;;2056128;28;20875;-61
2021/12/11 04:05:25;;;;;;;29.67;22.10;;;;;;;;;;2056521;28;20409;-61
2021/12/11 04:06:26;;;;;;;29.30;23.40;;;;;;;;;;2057440;28;20412;-60
2021/12/11 04:07:28;;;;;;;32.50;24.83;;;;;;;;;;2056810;28;20606;-60
2021/12/11 04:08:30;;;;;;;31.30;24.37;;;;;;;;;;2050308;28;20301;-57
2021/12/11 04:09:32;;;;;;;36.57;25.17;;;;;;;;;;2051700;28;20444;-59
2021/12/11 04:10:32;;;;;;;33.63;24.90;;;;;;;;;;2054167;28;20416;-60
2021/12/11 04:11:33;;;;;;;34.13;23.37;;;;;;;;;;2052121;28;20462;-61
2021/12/11 04:12:33;;;;;;;30.23;24.53;;;;;;;;;;2055621;28;20186;-56
2021/12/11 04:13:34;;;;;;;31.50;24.03;;;;;;;;;;2055933;28;20455;-58
2021/12/11 04:14:35;;;;;;;30.50;23.67;;;;;;;;;;2056388;28;20245;-59
2021/12/11 04:15:37;;;;;;;27.73;22.40;;;;;;;;;;2056474;28;20240;-58
2021/12/11 04:16:37;;;;;;;32.13;23.30;;;;;;;;;;2052871;28;21224;-56
2021/12/11 04:17:38;;;;;;;32.53;22.53;;;;;;;;;;2054556;28;20494;-52
2021/12/11 04:18:38;;;;;;;31.97;24.20;;;;;;;;;;2056436;28;20329;-60
2021/12/11 04:19:39;;;;;;;30.93;23.30;;;;;;;;;;2055939;28;20221;-58
2021/12/11 04:20:42;;;;;;;31.70;23.73;;;;;;;;;;2055999;28;20175;-60
2021/12/11 04:21:42;;;;;;;30.83;22.27;;;;;;;;;;2055550;28;20178;-59
2021/12/11 04:22:43;;;;;;;32.10;22.70;;;;;;;;;;2056622;28;20440;-59
2021/12/11 04:23:43;;;;;;;30.33;22.23;;;;;;;;;;2055688;28;20575;-58
2021/12/11 04:24:44;;;;;;;25.97;21.13;;;;;;;;;;2056118;28;20257;-59
2021/12/11 04:25:47;;;;;;;26.13;22.10;;;;;;;;;;2055746;28;20194;-57
2021/12/11 04:26:49;;;;;;;26.90;22.40;;;;;;;;;;2056210;28;20817;-61
2021/12/11 04:27:49;;;;;;;29.03;21.80;;;;;;;;;;2054331;28;20843;-60
2021/12/11 04:28:50;;;;;;;27.63;21.17;;;;;;;;;;2056017;28;20439;-58
2021/12/11 04:29:51;;;;;;;26.87;20.97;;;;;;;;;;2055391;28;20192;-58
2021/12/11 04:30:53;;;;;;;26.87;21.80;;;;;;;;;;2052299;28;20186;-61
2021/12/11 04:31:53;;;;;;;26.67;21.37;;;;;;;;;;2054803;28;20447;-60
2021/12/11 04:32:54;;;;;;;29.40;21.93;;;;;;;;;;2055502;28;20522;-57
2021/12/11 04:33:58;;;;;;;31.13;21.23;;;;;;;;;;2055556;28;20198;-53
2021/12/11 04:34:59;;;;;;;27.03;22.23;;;;;;;;;;2055204;28;20260;-59
2021/12/11 04:35:59;;;;;;;28.33;20.20;;;;;;;;;;2056356;28;20416;-59
2021/12/11 04:37:03;;;;;;;27.67;21.77;;;;;;;;;;2056145;28;20225;-57
2021/12/11 04:38:05;;;;;;;32.50;21.77;;;;;;;;;;2055724;28;20204;-58
2021/12/11 04:39:07;;;;;;;30.63;23.87;;;;;;;;;;2055855;28;20420;-56
2021/12/11 04:40:11;;;;;;;30.07;23.33;;;;;;;;;;2056114;28;20436;-58
2021/12/11 04:41:15;;;;;;;30.97;24.30;;;;;;;;;;2052214;28;20801;-60
2021/12/11 04:42:34;;;;;;;29.53;23.47;;;;;;;;;;2056093;28;20862;-59
2021/12/11 04:43:35;;;;;;;31.10;23.27;;;;;;;;;;2054891;28;20921;-58
2021/12/11 04:44:40;;;;;;;33.43;24.23;;;;;;;;;;2055656;28;20429;-56
2021/12/11 04:45:48;;;;;;;30.60;23.87;;;;;;;;;;2082051;22;20396;-64
2021/12/11 04:46:49;;;;;;;32.23;23.83;;;;;;;;;;2078739;28;20777;-65
2021/12/11 04:47:56;;;;;;;36.20;24.87;;;;;;;;;;2081127;28;20498;-66
2021/12/11 04:50:04;;;;;;;33.23;23.00;;;;;;;;;;2067017;28;20855;-65
2021/12/11 04:51:16;;;;;;;30.83;22.43;;;;;;;;;;2079740;28;20524;-67
2021/12/11 04:52:34;;;;;;;27.07;21.13;;;;;;;;;;2071878;28;20422;-64
2021/12/11 04:53:53;;;;;;;27.03;21.17;;;;;;;;;;2063361;28;20462;-64
2021/12/11 04:55:11;;;;;;;27.77;20.77;;;;;;;;;;2071786;28;20449;-65
2021/12/11 04:56:44;;;;;;;28.43;20.63;;;;;;;;;;2073003;28;20433;-66
2021/12/11 05:07:02;;;;;;;24.30;20.97;;;;;;;;;;2077913;28;20437;-67
2021/12/11 05:08:27;;;;;;;29.47;20.17;;;;;;;;;;2080354;28;20164;-65
2021/12/11 05:09:28;;;;;;;25.47;19.47;;;;;;;;;;2068347;28;20409;-66
2021/12/11 05:10:40;;;;;;;23.77;20.63;;;;;;;;;;2072245;28;20955;-65
2021/12/11 05:11:49;;;;;;;29.40;20.77;;;;;;;;;;2079347;28;20409;-65
2021/12/11 05:12:51;;;;;;;27.63;20.40;;;;;;;;;;2066490;28;20935;-65
2021/12/11 05:13:51;;;;;;;27.77;21.27;;;;;;;;;;2071949;28;20457;-64
2021/12/11 05:14:52;;;;;;;26.77;21.17;;;;;;;;;;2080322;28;20936;-65
2021/12/11 05:15:53;;;;;;;29.00;21.67;;;;;;;;;;2080365;28;20192;-65
2021/12/11 05:16:53;;;;;;;29.93;22.57;;;;;;;;;;2080001;28;20183;-65
2021/12/11 05:17:54;;;;;;;26.77;21.80;;;;;;;;;;2072449;28;20406;-69
2021/12/11 05:18:54;;;;;;;27.80;22.93;;;;;;;;;;2071805;28;20213;-66
2021/12/11 05:19:54;;;;;;;31.80;23.10;;;;;;;;;;2072026;28;20180;-66
2021/12/11 05:20:56;;;;;;;31.03;22.77;;;;;;;;;;2077749;28;20192;-65
2021/12/11 05:21:56;;;;;;;31.90;23.77;;;;;;;;;;2080071;28;20176;-67
2021/12/11 05:22:57;;;;;;;28.30;23.53;;;;;;;;;;2078383;28;20406;-65
2021/12/11 05:23:57;;;;;;;28.13;24.07;;;;;;;;;;2079135;28;20561;-64
2021/12/11 05:24:58;;;;;;;28.83;23.20;;;;;;;;;;2079882;28;20230;-64
2021/12/11 05:25:58;;;;;;;33.53;23.63;;;;;;;;;;2080523;28;20903;-65
2021/12/11 05:26:59;;;;;;;34.80;24.17;;;;;;;;;;2080271;28;20185;-64
2021/12/11 05:27:59;;;;;;;29.70;23.73;;;;;;;;;;2081031;28;20207;-65
2021/12/11 05:28:59;;;;;;;26.90;22.60;;;;;;;;;;2078203;28;20618;-65
2021/12/11 05:30:00;;;;;;;32.57;23.60;;;;;;;;;;2079292;28;20192;-65
2021/12/11 05:31:04;;;;;;;28.93;22.73;;;;;;;;;;2078322;28;20184;-65
2021/12/11 05:32:07;;;;;;;30.77;23.67;;;;;;;;;;2080184;28;20180;-64
2021/12/11 05:33:08;;;;;;;31.57;24.80;;;;;;;;;;2081608;28;20436;-65
2021/12/11 05:34:08;;;;;;;32.13;23.70;;;;;;;;;;2081769;28;20453;-63
2021/12/11 05:35:09;;;;;;;32.97;23.97;;;;;;;;;;2081943;28;20199;-66
2021/12/11 05:36:11;;;;;;;34.67;24.93;;;;;;;;;;2081534;28;20192;-67
2021/12/11 05:37:12;;;;;;;27.70;22.77;;;;;;;;;;2074547;28;20181;-66
2021/12/11 05:38:12;;;;;;;33.00;23.60;;;;;;;;;;2081041;28;20416;-65
2021/12/11 05:39:15;;;;;;;30.63;23.37;;;;;;;;;;2082707;28;20172;-64
2021/12/11 05:40:18;;;;;;;32.70;23.73;;;;;;;;;;2081478;28;20180;-65
2021/12/11 05:41:20;;;;;;;34.23;24.07;;;;;;;;;;2082381;28;20416;-64
2021/12/11 05:42:20;;;;;;;32.20;23.83;;;;;;;;;;2081751;28;20417;-65
2021/12/11 05:43:21;;;;;;;31.20;23.00;;;;;;;;;;2072772;28;20453;-65
2021/12/11 05:44:22;;;;;;;28.13;22.40;;;;;;;;;;2066603;28;20169;-64
2021/12/11 05:45:22;;;;;;;33.60;23.50;;;;;;;;;;2079110;28;20204;-66
2021/12/11 05:46:23;;;;;;;28.30;22.23;;;;;;;;;;2079791;28;20449;-64
2021/12/11 05:47:23;;;;;;;32.00;25.30;;;;;;;;;;2081560;28;20185;-65
2021/12/11 05:48:24;;;;;;;27.97;22.57;;;;;;;;;;2070426;28;20265;-66
2021/12/11 05:49:27;;;;;;;26.00;22.73;;;;;;;;;;2075112;28;20550;-67
2021/12/11 05:50:29;;;;;;;29.97;22.23;;;;;;;;;;2075545;28;20562;-65
2021/12/11 05:51:37;;;;;;;29.77;23.10;;;;;;;;;;2075859;28;20413;-64
2021/12/11 05:52:37;;;;;;;28.10;21.73;;;;;;;;;;2071642;28;20461;-65
2021/12/11 05:53:38;;;;;;;30.90;21.57;;;;;;;;;;2075827;28;20463;-64
2021/12/11 05:54:39;;;;;;;32.17;23.33;;;;;;;;;;2072588;28;20724;-64
2021/12/11 05:55:41;;;;;;;32.77;23.93;;;;;;;;;;2072710;28;20189;-65
2021/12/11 05:56:42;;;;;;;35.17;23.80;;;;;;;;;;2079218;28;20428;-65
2021/12/11 05:57:49;;;;;;;29.27;23.33;;;;;;;;;;2080990;28;20436;-63
2021/12/11 05:59:50;;;;;;;28.50;22.40;;;;;;;;;;2081098;28;20433;-64
2021/12/11 06:00:51;;;;;;;27.17;21.77;;;;;;;;;;2082173;28;20180;-66
2021/12/11 06:01:59;;;;;;;28.77;22.80;;;;;;;;;;2073582;28;20169;-65
2021/12/11 06:03:00;;;;;;;31.40;24.07;;;;;;;;;;2080684;28;20432;-65
2021/12/11 06:04:03;;;;;;;32.53;25.13;;;;;;;;;;2081767;28;20461;-69
2021/12/11 06:05:04;;;;;;;32.47;24.37;;;;;;;;;;2082092;28;20951;-64
2021/12/11 06:06:05;;;;;;;35.00;23.63;;;;;;;;;;2081794;28;20449;-64
2021/12/11 06:07:07;;;;;;;36.70;23.47;;;;;;;;;;2079916;28;20183;-62
2021/12/11 06:08:08;;;;;;;37.97;25.20;;;;;;;;;;2081644;28;20413;-66
2021/12/11 06:09:11;;;;;;;35.80;24.20;;;;;;;;;;2073788;28;20465;-64
2021/12/11 06:10:13;;;;;;;38.37;25.07;;;;;;;;;;2073852;28;20430;-65
2021/12/11 06:11:14;;;;;;;33.43;25.37;;;;;;;;;;2073514;28;20962;-66
2021/12/11 06:12:16;;;;;;;37.20;24.37;;;;;;;;;;2082026;28;20833;-65
2021/12/11 06:13:17;;;;;;;34.90;24.00;;;;;;;;;;2079257;28;20914;-65
2021/12/11 06:14:18;;;;;;;33.40;24.30;;;;;;;;;;2082035;28;20460;-69
2021/12/11 06:15:19;;;;;;;32.43;23.40;;;;;;;;;;2081164;28;20416;-64
2021/12/11 06:16:19;;;;;;;33.73;24.93;;;;;;;;;;2074169;28;20484;-63
2021/12/11 06:17:22;;;;;;;30.67;23.50;;;;;;;;;;2074179;28;20173;-66
2021/12/11 06:18:23;;;;;;;29.00;22.23;;;;;;;;;;2081356;28;20545;-65
2021/12/11 06:19:25;;;;;;;28.97;22.23;;;;;;;;;;2077802;28;20532;-64
2021/12/11 06:20:27;;;;;;;31.70;22.40;;;;;;;;;;2081600;28;20161;-65
2021/12/11 06:21:28;;;;;;;31.70;23.97;;;;;;;;;;2081070;28;20444;-66